Airfield :
LOGIN :

Register | Disclaimer

   EN    FR    IT 

 










Legend :    VFR   Marginal VFR   IFR   Intensive IFR   Very Intensive IFR
Visi :
Ceiling :
>= 8 km
>= 3000ft
5 to 8 km
1000 to 3000 ft
1500m to 5 km
500 to 1000 ft
800 to 1500m
200 to 500 ft
< 800m
< 200 ft
Symbols :   Thunderstorms  Fog  Heavy snow  Heavy precipitations  Wind > 20 kt
SIGMETs :     Misc.  Thunderstorms  Icing  Turbulence  Mountain Waves  Volcanic Ashes






- Airport Elevation : 190 ft
- IATA code : CAX


EGNC - Carlisle

CURRENT METAR :
  • 211750Z 10009KT 070V140 9999 SCT022 05/02 Q1003

EXPIRED METARs :
  • 211720Z 09009KT 050V130 9999 SCT022 05/02 Q1003
  • 211650Z 10006KT 060V220 9999 SCT022 06/01 Q1004
  • 211620Z 10009KT 060V140 9999 SCT022 06/01 Q1004

Expired Forecast.
ATIS : +44 1228 574 123



MET'MAP, your aeronautical weather chart ! - Copyright ORBIFLY December 2007 - Disclaimer

ORBIFLY MET'MAP TEAM :

Programming & Development : Alexandra Zaïnal
Concept & Development : Baudouin d'Aumeries
Co-Development & Prog : Marc-Olivier Méhu
Technical & hardware support : Manuel Goepfert

Contact : metmap@orbifly.com




SOURCES & CREDITS :

   NOAA